Time;durP1;ratioP1;P1;durP2;ratioP2;P2;SDS_P1;SDS_P2;PMS_P1;PMS_P2;Temp;Humidity;BMP_temperature;BMP_pressure;BME280_temperature;BME280_humidity;BME280_pressure;Samples;Min_cycle;Max_cycle;Signal;HPM_P1;HPM_P2
2021/08/05 00:02:08;;;;;;;1999.90;999.90;;;;;;;18.07;71.14;100787.97;15777142;28;20503;-59
2021/08/05 00:09:43;;;;;;;1999.90;999.90;;;;;;;18.04;71.48;100783.09;15785083;28;20458;-59
2021/08/05 00:17:16;;;;;;;1999.90;999.90;;;;;;;18.07;70.91;100785.13;15737064;28;20048;-59
2021/08/05 00:25:04;;;;;;;1999.90;999.90;;;;;;;18.08;70.96;100787.56;15738960;28;20136;-59
2021/08/05 00:32:42;;;;;;;1999.90;999.90;;;;;;;17.88;71.90;100786.06;15780719;28;20044;-59
2021/08/05 00:40:21;;;;;;;1999.90;999.90;;;;;;;17.88;71.85;100777.59;15769628;28;20104;-58
2021/08/05 00:47:54;;;;;;;1999.90;999.90;;;;;;;17.71;72.32;100773.31;15745419;28;20405;-58
2021/08/05 00:55:29;;;;;;;1999.90;999.90;;;;;;;17.68;72.67;100774.06;15734805;28;20067;-59
2021/08/05 01:03:09;;;;;;;1999.90;999.90;;;;;;;17.65;72.46;100772.00;15713206;28;20056;-59
2021/08/05 01:10:50;;;;;;;1999.90;999.90;;;;;;;17.62;72.61;100757.84;15764762;28;20039;-59
2021/08/05 01:18:27;;;;;;;1999.90;999.90;;;;;;;17.46;72.98;100743.88;15765485;28;20051;-60
2021/08/05 01:26:10;;;;;;;1999.90;999.90;;;;;;;17.48;73.20;100735.84;15735281;28;20124;-60
2021/08/05 01:33:48;;;;;;;1999.90;999.90;;;;;;;17.52;73.10;100742.38;15752073;28;20486;-60
2021/08/05 01:41:22;;;;;;;1999.90;999.90;;;;;;;17.48;73.60;100742.31;15730189;28;20052;-60
2021/08/05 01:48:56;;;;;;;1999.90;999.90;;;;;;;17.56;73.11;100746.06;15781797;28;20047;-59
2021/08/05 01:56:29;;;;;;;1999.90;999.90;;;;;;;17.45;72.58;100740.25;15775146;28;20102;-59
2021/08/05 02:04:19;;;;;;;1999.90;999.90;;;;;;;17.59;72.21;100734.00;15733557;28;20411;-58
2021/08/05 02:11:54;;;;;;;1999.90;999.90;;;;;;;17.53;71.38;100736.34;15746782;28;20097;-56
2021/08/05 02:19:30;;;;;;;1999.90;999.90;;;;;;;17.59;70.74;100728.38;15717237;23;20127;-65
2021/08/05 02:27:03;;;;;;;1999.90;999.90;;;;;;;17.41;71.07;100724.47;15722121;28;20032;-65
2021/08/05 02:34:37;;;;;;;1999.90;999.90;;;;;;;17.48;70.31;100718.94;15733628;28;20041;-65
2021/08/05 02:42:11;;;;;;;1999.90;999.90;;;;;;;17.43;71.04;100730.56;15745847;28;20037;-65
2021/08/05 02:49:44;;;;;;;1999.90;999.90;;;;;;;17.38;71.51;100719.56;15746580;28;20490;-65
2021/08/05 02:57:18;;;;;;;1999.90;999.90;;;;;;;17.29;71.75;100720.66;15762875;28;20090;-65
2021/08/05 03:04:52;;;;;;;1999.90;999.90;;;;;;;17.46;71.42;100719.31;15744996;28;20076;-65
2021/08/05 03:12:25;;;;;;;1999.90;999.90;;;;;;;17.53;71.40;100715.78;15743144;28;20052;-64
2021/08/05 03:19:59;;;;;;;1999.90;999.90;;;;;;;17.51;70.85;100715.38;15743926;28;20139;-65
2021/08/05 03:27:31;;;;;;;1999.90;999.90;;;;;;;17.60;70.71;100725.16;15728038;28;20131;-65
2021/08/05 03:35:05;;;;;;;1999.90;999.90;;;;;;;17.70;70.95;100720.09;15726349;28;20532;-65
2021/08/05 03:42:37;;;;;;;1999.90;999.90;;;;;;;17.56;70.36;100701.72;15742800;28;20090;-65
2021/08/05 03:50:11;;;;;;;1999.90;999.90;;;;;;;17.54;70.86;100703.31;15742686;28;20556;-65
2021/08/05 03:57:46;;;;;;;1999.90;999.90;;;;;;;17.06;72.46;100702.16;15747771;28;20361;-65
2021/08/05 04:05:20;;;;;;;1999.90;999.90;;;;;;;17.17;71.28;100697.50;15746719;28;20047;-65
2021/08/05 04:12:52;;;;;;;1999.90;999.90;;;;;;;17.20;70.98;100703.22;15723662;28;20067;-66
2021/08/05 04:20:27;;;;;;;1999.90;999.90;;;;;;;17.22;70.28;100698.00;15741347;28;20041;-65
2021/08/05 04:27:59;;;;;;;;;;;;;;;17.45;69.64;100697.13;15747276;28;20136;-65
2021/08/05 04:35:32;;;;;;;1999.90;999.90;;;;;;;17.51;69.51;100698.44;15741094;28;19920;-65
2021/08/05 04:43:05;;;;;;;1999.90;999.90;;;;;;;17.59;69.16;100688.88;15739259;28;20041;-65
2021/08/05 04:50:39;;;;;;;1999.90;999.90;;;;;;;17.64;69.13;100682.91;15739764;28;20048;-65
2021/08/05 04:58:12;;;;;;;1999.90;999.90;;;;;;;17.77;68.53;100681.50;15738979;28;20449;-65
2021/08/05 05:05:45;;;;;;;1999.90;999.90;;;;;;;18.21;67.72;100682.84;15738398;28;20481;-65
2021/08/05 05:13:18;;;;;;;1999.90;999.90;;;;;;;18.74;66.91;100683.41;15737663;28;20043;-65
2021/08/05 05:20:53;;;;;;;1999.90;999.90;;;;;;;19.02;66.12;100680.84;15719505;28;20072;-65
2021/08/05 05:28:26;;;;;;;1999.90;999.90;;;;;;;19.36;64.37;100679.88;15735733;28;20060;-65
2021/08/05 05:36:00;;;;;;;1999.90;999.90;;;;;;;19.43;64.92;100675.09;15736564;28;20072;-66
2021/08/05 05:43:32;;;;;;;1999.90;999.90;;;;;;;19.66;63.87;100682.53;15736131;28;20052;-65
2021/08/05 05:51:05;;;;;;;1999.90;999.90;;;;;;;20.07;63.56;100683.94;15716419;28;20041;-66
2021/08/05 05:58:38;;;;;;;1999.90;999.90;;;;;;;20.48;61.44;100682.91;15717068;28;20049;-66
2021/08/05 06:06:11;;;;;;;1999.90;999.90;;;;;;;20.62;60.80;100671.56;15736204;28;20458;-66
2021/08/05 06:13:43;;;;;;;1999.90;999.90;;;;;;;20.66;62.18;100669.56;15717062;28;20079;-66
2021/08/05 06:21:17;;;;;;;1999.90;999.90;;;;;;;20.58;61.34;100682.91;15750619;28;20068;-66
2021/08/05 06:28:49;;;;;;;1999.90;999.90;;;;;;;20.68;61.11;100687.78;15656398;28;20053;-66
2021/08/05 06:36:23;;;;;;;1999.90;999.90;;;;;;;21.25;60.30;100684.16;15671693;28;20076;-66
2021/08/05 06:43:55;;;;;;;1999.90;999.90;;;;;;;21.09;60.10;100681.75;15671756;28;20112;-66
2021/08/05 06:51:30;;;;;;;;;;;;;;;21.98;59.73;100698.63;15688078;28;20045;-66
2021/08/05 06:59:02;;;;;;;1999.90;999.90;;;;;;;22.62;57.89;100692.66;15671841;28;19983;-65
2021/08/05 07:06:36;;;;;;;1999.90;999.90;;;;;;;22.95;56.93;100688.38;15687440;28;20350;-65
2021/08/05 07:14:09;;;;;;;1999.90;999.90;;;;;;;22.63;56.56;100691.44;15660525;28;20343;-66
2021/08/05 07:21:42;;;;;;;;;;;;;;;22.72;56.72;100683.25;15685704;28;20053;-66
2021/08/05 07:29:14;;;;;;;1999.90;999.90;;;;;;;22.71;58.13;100683.63;15761456;28;20400;-66
2021/08/05 07:36:48;;;;;;;1999.90;999.90;;;;;;;23.29;56.40;100684.84;15745343;28;20163;-66
2021/08/05 07:44:21;;;;;;;1999.90;999.90;;;;;;;23.69;54.46;100674.69;15744020;28;20048;-66
2021/08/05 07:51:54;;;;;;;1999.90;999.90;;;;;;;23.14;56.47;100671.97;15743476;28;20163;-66
2021/08/05 07:59:27;;;;;;;1999.90;999.90;;;;;;;23.36;55.48;100686.81;15724843;28;20130;-66
2021/08/05 08:07:00;;;;;;;1999.90;999.90;;;;;;;23.79;55.39;100670.91;15724566;28;20504;-65
2021/08/05 08:14:36;;;;;;;1999.90;999.90;;;;;;;23.90;55.31;100673.63;15725051;28;20127;-66
2021/08/05 08:22:10;;;;;;;1999.90;999.90;;;;;;;23.97;54.81;100676.41;15740776;28;20118;-67
2021/08/05 08:29:42;;;;;;;1999.90;999.90;;;;;;;23.99;54.49;100665.38;15709365;28;20080;-66
2021/08/05 08:37:43;;;;;;;1999.90;999.90;;;;;;;24.46;54.41;100662.72;15678754;28;20045;-66
2021/08/05 08:46:07;;;;;;;1999.90;999.90;;;;;;;24.64;53.29;100660.44;15677558;28;20053;-66
2021/08/05 08:53:41;;;;;;;1999.90;999.90;;;;;;;25.28;51.50;100650.00;15644454;28;20063;-66
2021/08/05 09:01:22;;;;;;;1999.90;999.90;;;;;;;25.51;50.71;100649.16;15675901;28;20044;-65
2021/08/05 09:09:11;;;;;;;1999.90;999.90;;;;;;;25.49;51.15;100649.59;15677136;28;20052;-66
2021/08/05 09:25:56;;;;;;;1999.90;999.90;;;;;;;27.34;47.81;100630.31;15711893;28;20113;-66
2021/08/05 09:33:59;;;;;;;1999.90;999.90;;;;;;;27.16;47.37;100627.91;15737957;28;20118;-65
2021/08/05 09:41:32;;;;;;;1999.90;999.90;;;;;;;27.20;45.78;100627.81;15737387;28;20066;-67
2021/08/05 09:49:19;;;;;;;1999.90;999.90;;;;;;;26.83;47.01;100624.25;15736371;28;20075;-65
2021/08/05 09:57:22;;;;;;;1999.90;999.90;;;;;;;26.90;47.50;100608.97;15741058;28;20044;-66
2021/08/05 10:12:54;;;;;;;1999.90;999.90;;;;;;;27.00;45.63;100602.16;15790240;27;20352;-65
2021/08/05 10:20:27;;;;;;;1999.90;999.90;;;;;;;26.76;45.18;100595.78;15788421;28;20117;-66
2021/08/05 10:28:21;;;;;;;1999.90;999.90;;;;;;;27.87;44.01;100591.56;15788653;28;20131;-65
2021/08/05 10:35:53;;;;;;;1999.90;999.90;;;;;;;27.09;43.14;100582.28;15788744;28;20115;-66
2021/08/05 10:43:29;;;;;;;1999.90;999.90;;;;;;;27.88;44.00;100581.69;15787941;28;20064;-65
2021/08/05 10:51:13;;;;;;;1999.90;999.90;;;;;;;26.48;43.43;100577.31;15788208;28;20519;-65
2021/08/05 10:59:09;;;;;;;1999.90;999.90;;;;;;;27.81;42.23;100552.44;15782142;28;20108;-65
2021/08/05 11:07:20;;;;;;;1999.90;999.90;;;;;;;27.09;42.74;100550.78;15785012;28;20033;-65
2021/08/05 11:15:02;;;;;;;1999.90;999.90;;;;;;;27.65;43.08;100538.16;15786279;28;20051;-65
2021/08/05 11:22:45;;;;;;;1999.90;999.90;;;;;;;28.34;41.17;100530.69;15741876;28;20460;-66
2021/08/05 11:30:45;;;;;;;1999.90;999.90;;;;;;;28.77;40.82;100525.59;15680043;28;20072;-66
2021/08/05 11:38:18;;;;;;;1999.90;999.90;;;;;;;28.03;42.03;100512.44;15680930;28;20048;-65
2021/08/05 11:46:33;;;;;;;1999.90;999.90;;;;;;;28.72;41.98;100510.53;15680048;28;20060;-65
2021/08/05 11:54:11;;;;;;;1999.90;999.90;;;;;;;28.78;40.52;100504.22;15672185;28;20057;-66
2021/08/05 12:02:02;;;;;;;1999.90;999.90;;;;;;;29.54;39.49;100483.81;15679776;28;20149;-65
2021/08/05 12:09:49;;;;;;;1999.90;999.90;;;;;;;29.84;38.65;100483.03;15679278;28;20053;-66
2021/08/05 12:17:47;;;;;;;1999.90;999.90;;;;;;;29.86;37.54;100480.47;15679272;28;20648;-65
2021/08/05 12:25:30;;;;;;;1999.90;999.90;;;;;;;29.18;40.07;100476.53;15711451;28;20044;-66
2021/08/05 12:33:23;;;;;;;1999.90;999.90;;;;;;;27.77;41.32;100463.69;15739455;28;20037;-66
2021/08/05 12:41:00;;;;;;;1999.90;999.90;;;;;;;27.97;42.04;100459.78;15739319;28;20397;-65
2021/08/05 12:48:54;;;;;;;1999.90;999.90;;;;;;;27.01;41.68;100458.53;15738783;28;20124;-65
2021/08/05 12:56:40;;;;;;;1999.90;999.90;;;;;;;27.02;42.87;100443.00;15737807;28;20539;-65
2021/08/05 13:04:46;;;;;;;1999.90;999.90;;;;;;;26.77;43.43;100448.56;15739175;28;20053;-66
2021/08/05 13:12:25;;;;;;;1999.90;999.90;;;;;;;27.10;42.72;100437.88;15706862;28;20132;-65
2021/08/05 13:20:02;;;;;;;1999.90;999.90;;;;;;;27.83;40.88;100441.00;15736008;28;20048;-65
2021/08/05 13:27:34;;;;;;;1999.90;999.90;;;;;;;28.46;39.93;100434.41;15686474;28;20047;-65
2021/08/05 13:35:11;;;;;;;1999.90;999.90;;;;;;;28.40;40.30;100419.81;15675402;28;20097;-65
2021/08/05 13:43:07;;;;;;;1999.90;999.90;;;;;;;27.32;41.16;100421.66;15673364;28;20037;-65
2021/08/05 13:50:57;;;;;;;1999.90;999.90;;;;;;;27.19;42.00;100414.28;15673065;28;20416;-66
2021/08/05 13:59:03;;;;;;;1999.90;999.90;;;;;;;27.10;42.79;100411.31;15673428;28;20510;-65
2021/08/05 14:06:39;;;;;;;1999.90;999.90;;;;;;;27.02;42.98;100402.91;15671716;28;20041;-65
2021/08/05 14:14:16;;;;;;;1999.90;999.90;;;;;;;26.93;42.48;100407.66;15686163;23;20136;-60
2021/08/05 14:21:56;;;;;;;1999.90;999.90;;;;;;;26.97;42.07;100402.63;15672186;28;20045;-61
2021/08/05 14:29:39;;;;;;;1999.90;999.90;;;;;;;26.72;45.91;100406.22;15652952;28;20490;-59
2021/08/05 14:37:21;;;;;;;1999.90;999.90;;;;;;;25.80;57.27;100395.91;15611119;28;20137;-58
2021/08/05 14:44:53;;;;;;;1999.90;999.90;;;;;;;26.07;56.86;100392.00;15611617;28;20045;-59
2021/08/05 14:52:27;;;;;;;;;;;;;;;25.38;58.02;100376.91;15594027;28;20037;-56
2021/08/05 15:00:01;;;;;;;1999.90;999.90;;;;;;;25.01;59.87;100376.03;15621358;28;20404;-59
2021/08/05 15:07:38;;;;;;;1999.90;999.90;;;;;;;24.45;60.89;100373.91;15620579;28;20156;-60
2021/08/05 15:15:11;;;;;;;1999.90;999.90;;;;;;;23.44;64.26;100381.63;15620834;28;20095;-61
2021/08/05 15:22:55;;;;;;;1999.90;999.90;;;;;;;22.91;64.99;100376.69;15630981;28;20045;-61
2021/08/05 15:30:29;;;;;;;1999.90;999.90;;;;;;;22.46;67.35;100391.00;15682171;28;20045;-59
2021/08/05 15:38:13;;;;;;;1999.90;999.90;;;;;;;22.17;68.29;100401.81;15681511;28;20083;-60
2021/08/05 15:45:46;;;;;;;1999.90;999.90;;;;;;;21.88;70.02;100379.34;15663502;28;20048;-61
2021/08/05 15:53:20;;;;;;;1999.90;999.90;;;;;;;21.81;69.82;100395.63;15681499;28;20063;-60
2021/08/05 16:00:52;;;;;;;1999.90;999.90;;;;;;;22.07;68.88;100399.88;15680754;28;20465;-61
2021/08/05 16:08:26;;;;;;;1999.90;999.90;;;;;;;21.89;69.02;100414.22;15661710;28;20033;-59
2021/08/05 16:15:58;;;;;;;1999.90;999.90;;;;;;;21.69;69.30;100416.81;15679186;28;20049;-61
2021/08/05 16:23:32;;;;;;;1999.90;999.90;;;;;;;21.85;70.15;100433.31;15661485;28;20199;-61
2021/08/05 16:31:04;;;;;;;1999.90;999.90;;;;;;;21.72;69.42;100415.97;15599644;28;20096;-60
2021/08/05 16:38:38;;;;;;;1999.90;999.90;;;;;;;21.66;70.80;100411.94;15566032;28;20030;-60
2021/08/05 16:46:10;;;;;;;1999.90;999.90;;;;;;;21.61;72.16;100403.88;15604011;28;20057;-61
2021/08/05 16:53:43;;;;;;;1999.90;999.90;;;;;;;21.70;71.17;100411.94;15615251;28;20455;-60
2021/08/05 17:01:16;;;;;;;1999.90;999.90;;;;;;;21.61;70.27;100412.41;15614092;28;20034;-63
2021/08/05 17:08:50;;;;;;;1999.90;999.90;;;;;;;21.65;71.31;100401.81;15568636;28;20045;-64
2021/08/05 17:16:23;;;;;;;1999.90;999.90;;;;;;;21.80;70.94;100408.22;15613256;28;20140;-62
2021/08/05 17:23:56;;;;;;;1999.90;999.90;;;;;;;22.01;68.96;100399.53;15616036;28;20103;-61
2021/08/05 17:31:29;;;;;;;1999.90;999.90;;;;;;;21.87;68.20;100405.28;15624733;28;20347;-61
2021/08/05 17:39:04;;;;;;;1999.90;999.90;;;;;;;21.20;70.11;100409.34;15595237;28;20046;-62
2021/08/05 17:46:38;;;;;;;1999.90;999.90;;;;;;;21.24;71.20;100410.13;15610348;28;20539;-62
2021/08/05 17:54:12;;;;;;;1999.90;999.90;;;;;;;21.17;71.44;100413.03;15568771;28;20041;-62
2021/08/05 18:01:44;;;;;;;1999.90;999.90;;;;;;;21.17;71.74;100410.19;15612927;28;20453;-60
2021/08/05 18:09:18;;;;;;;1999.90;999.90;;;;;;;21.56;71.87;100404.31;15599067;28;20037;-61
2021/08/05 18:16:50;;;;;;;1999.90;999.90;;;;;;;21.46;71.30;100420.19;15573793;28;20387;-61
2021/08/05 18:24:23;;;;;;;1999.90;999.90;;;;;;;21.56;71.27;100413.63;15620781;28;20049;-61
2021/08/05 18:31:56;;;;;;;1999.90;999.90;;;;;;;21.43;71.43;100401.16;15618746;28;20175;-62
2021/08/05 18:39:29;;;;;;;1999.90;999.90;;;;;;;21.44;71.15;100410.47;15598415;28;20045;-63
2021/08/05 18:47:02;;;;;;;1999.90;999.90;;;;;;;21.42;71.16;100401.56;15612467;28;20080;-61
2021/08/05 18:54:35;;;;;;;1999.90;999.90;;;;;;;21.20;71.85;100410.16;15594565;28;20160;-62
2021/08/05 19:02:08;;;;;;;1999.90;999.90;;;;;;;21.22;72.33;100413.41;15610939;28;20061;-61
2021/08/05 19:09:56;;;;;;;1999.90;999.90;;;;;;;21.04;73.96;100412.66;15610960;28;20072;-61
2021/08/05 19:17:32;;;;;;;1999.90;999.90;;;;;;;20.96;73.87;100417.56;15600139;28;20077;-60
2021/08/05 19:25:08;;;;;;;1999.90;999.90;;;;;;;20.93;73.89;100409.88;15611781;28;20076;-61
2021/08/05 19:32:40;;;;;;;1999.90;999.90;;;;;;;20.77;74.39;100411.56;15611990;28;20585;-61
2021/08/05 19:40:14;;;;;;;1999.90;999.90;;;;;;;20.71;74.83;100405.50;15608882;28;20056;-62
2021/08/05 19:47:46;;;;;;;1999.90;999.90;;;;;;;20.55;74.93;100405.16;15620552;28;20056;-61
2021/08/05 19:55:22;;;;;;;1999.90;999.90;;;;;;;20.42;75.53;100397.06;15605277;28;20168;-61
2021/08/05 20:02:57;;;;;;;1999.90;999.90;;;;;;;20.31;75.29;100399.06;15615213;28;20076;-61
2021/08/05 20:10:30;;;;;;;1999.90;999.90;;;;;;;20.16;75.56;100403.97;15604733;28;20517;-59
2021/08/05 20:18:03;;;;;;;1999.90;999.90;;;;;;;20.14;76.06;100397.09;15589353;28;20077;-62
2021/08/05 20:25:36;;;;;;;1999.90;999.90;;;;;;;20.14;75.91;100397.09;15575760;28;20053;-62
2021/08/05 20:33:11;;;;;;;1999.90;999.90;;;;;;;20.08;75.78;100390.19;15605140;28;20506;-62
2021/08/05 20:40:44;;;;;;;1999.90;999.90;;;;;;;19.98;76.01;100383.31;15588637;28;20545;-62
2021/08/05 20:48:16;;;;;;;1999.90;999.90;;;;;;;19.84;76.37;100380.50;15606614;28;20474;-62
2021/08/05 20:55:50;;;;;;;1999.90;999.90;;;;;;;19.75;76.56;100375.25;15587206;28;20463;-62
2021/08/05 21:03:23;;;;;;;1999.90;999.90;;;;;;;19.56;77.17;100373.59;15590388;28;20049;-62
2021/08/05 21:10:56;;;;;;;1999.90;999.90;;;;;;;19.68;76.58;100375.22;15589047;28;20096;-62
2021/08/05 21:18:29;;;;;;;1999.90;999.90;;;;;;;19.50;76.96;100369.53;15586844;28;20171;-59
2021/08/05 21:26:04;;;;;;;1999.90;999.90;;;;;;;19.55;77.64;100365.50;15672847;22;20051;-63
2021/08/05 21:33:37;;;;;;;1999.90;999.90;;;;;;;19.51;77.41;100361.84;15679297;28;20472;-62
2021/08/05 21:41:10;;;;;;;1999.90;999.90;;;;;;;19.29;77.60;100366.69;15703416;28;20041;-63
2021/08/05 21:48:43;;;;;;;1999.90;999.90;;;;;;;19.30;77.97;100346.47;15678394;28;20575;-63
2021/08/05 21:56:17;;;;;;;1999.90;999.90;;;;;;;19.37;77.64;100348.47;15682061;28;20555;-64
2021/08/05 22:03:49;;;;;;;1999.90;999.90;;;;;;;19.27;77.79;100352.09;15667141;28;20543;-62
2021/08/05 22:11:23;;;;;;;1999.90;999.90;;;;;;;19.38;77.18;100352.94;15686930;28;20577;-64
2021/08/05 22:18:56;;;;;;;1999.90;999.90;;;;;;;19.36;77.15;100348.88;15682217;28;20107;-63
2021/08/05 22:26:30;;;;;;;1999.90;999.90;;;;;;;19.30;77.58;100337.19;15678150;28;20044;-63
2021/08/05 22:34:02;;;;;;;1999.90;999.90;;;;;;;19.29;77.28;100332.72;15678913;28;20052;-63
2021/08/05 22:41:36;;;;;;;1999.90;999.90;;;;;;;19.26;77.47;100334.31;15659756;28;20045;-63
2021/08/05 22:49:11;;;;;;;1999.90;999.90;;;;;;;19.18;77.25;100332.72;15702950;28;20037;-63
2021/08/05 22:56:45;;;;;;;1999.90;999.90;;;;;;;19.25;76.61;100317.75;15659273;28;20177;-63
2021/08/05 23:04:17;;;;;;;1999.90;999.90;;;;;;;19.14;77.17;100316.94;15697274;28;20044;-63
2021/08/05 23:11:51;;;;;;;1999.90;999.90;;;;;;;19.18;76.60;100321.41;15680680;28;20044;-63
2021/08/05 23:19:23;;;;;;;1999.90;999.90;;;;;;;19.11;77.35;100329.06;15691701;28;20385;-62
2021/08/05 23:26:57;;;;;;;1999.90;999.90;;;;;;;19.04;77.38;100322.16;15685326;28;20574;-64
2021/08/05 23:34:29;;;;;;;1999.90;999.90;;;;;;;18.91;77.56;100312.44;15683235;28;20057;-62
2021/08/05 23:42:06;;;;;;;1999.90;999.90;;;;;;;18.94;77.66;100308.00;15672356;28;20081;-64
2021/08/05 23:49:41;;;;;;;1999.90;999.90;;;;;;;18.94;77.67;100308.00;15667870;28;20132;-63
2021/08/05 23:57:15;;;;;;;1999.90;999.90;;;;;;;18.89;76.84;100309.22;15709921;28;20055;-64
